Latest Weather Observations for Jandakot

IDW60801

Issued at 2:02 pm WST Monday 26 January 2015 (issued every 30 minutes, with the page automatically refreshed every 10 minutes)

About weather observations | Map of weather stations | Latest weather observations for WA | Other Formats
Station Details ID: 009172 Name: JANDAKOT AERO Lat: -32.10 Lon: 115.88 Height: 30.0 m
Data from the previous 72 hours. | See also: Recent months at Jandakot
Date/Time
WST
Temp
°C
App
Temp
°C
Dew
Point
Rel
Hum
%
Delta-T
°C
Wind Press
QNH
hPa
Press
MSL
hPa
Rain
since 9 am
mm
Dir
 
Spd
km/h
Gust
km/h
Spd
kts
Gust
kts
26/02:00pm 35.5 31.2 7.0 17 15.8 ESE 19 30 10 16 1009.5 1009.3 0.0
26/01:30pm 33.7 30.9 8.5 21 14.2 ENE 13 26 7 14 1010.1 1009.9 0.0
26/01:00pm 32.9 29.3 8.2 21 13.8 ESE 17 30 9 16 1010.6 1010.4 0.0
26/12:30pm 32.7 28.6 7.8 21 13.8 ESE 19 30 10 16 1011.0 1010.8 0.0
26/12:00pm 31.1 27.2 8.7 25 12.5 ENE 19 30 10 16 1011.4 1011.2 0.0
26/11:30am 30.5 26.4 8.7 25 12.1 E 20 28 11 15 1011.8 1011.6 0.0
26/11:00am 29.3 24.4 8.6 27 11.4 ESE 24 33 13 18 1012.2 1012.0 0.0
26/10:30am 28.2 23.4 8.7 29 10.7 ESE 24 33 13 18 1012.5 1012.3 0.0
26/10:00am 26.7 22.2 8.7 32 9.8 ESE 22 32 12 17 1013.0 1012.8 0.0
26/09:30am 25.4 21.3 8.8 35 9.0 E 20 26 11 14 1013.4 1013.2 0.0
26/09:00am 23.8 19.8 8.9 38 8.0 E 20 30 11 16 1013.8 1013.6 0.0
26/08:30am 22.1 17.3 8.7 42 7.1 ESE 24 32 13 17 1014.1 1013.9 0.0
26/08:00am 20.5 16.1 8.9 47 6.1 ESE 22 33 12 18 1014.4 1014.3 0.0
26/07:30am 19.1 13.1 8.7 51 5.4 E 30 39 16 21 1014.4 1014.3 0.0
26/07:00am 17.9 13.5 9.1 56 4.6 ESE 22 35 12 19 1014.8 1014.7 0.0
26/06:30am 17.1 10.6 8.8 58 4.3 E 33 46 18 25 1014.4 1014.3 0.0
26/06:00am 16.4 12.0 8.8 60 3.9 E 22 32 12 17 1014.6 1014.5 0.0
26/05:30am 16.4 12.5 8.6 60 4.0 E 19 32 10 17 1014.8 1014.7 0.0
26/05:00am 16.2 12.3 8.8 61 3.8 ESE 19 32 10 17 1014.5 1014.4 0.0
26/04:30am 16.7 12.8 8.5 58 4.2 ESE 19 35 10 19 1014.3 1014.2 0.0
26/04:00am 17.0 11.3 8.4 57 4.4 E 28 43 15 23 1014.3 1014.2 0.0
26/03:30am 17.4 12.8 8.2 54 4.7 E 22 37 12 20 1014.3 1014.2 0.0
26/03:00am 18.0 13.3 7.8 51 5.2 ESE 22 35 12 19 1014.3 1014.2 0.0
26/02:30am 18.8 12.9 7.4 47 5.8 ESE 28 37 15 20 1014.2 1014.0 0.0
26/02:00am 19.4 14.1 6.9 44 6.3 ESE 24 35 13 19 1014.2 1014.0 0.0
26/01:30am 20.1 14.8 6.6 41 6.8 ESE 24 37 13 20 1014.5 1014.4 0.0
26/01:00am 21.2 14.9 5.8 36 7.7 ESE 28 43 15 23 1014.2 1014.0 0.0
26/12:30am 22.5 15.4 5.3 32 8.6 ESE 32 50 17 27 1014.0 1013.8 0.0
26/12:23am 22.5 16.1 5.3 32 8.6 ESE 28 50 15 27 1014.0 1013.8 0.0
26/12:00am 23.0 17.0 5.2 31 8.9 ESE 26 39 14 21 1014.1 1013.9 0.0
 
Date/Time
WST
Temp
°C
App
Temp
°C
Dew
Point
Rel
Hum
%
Delta-T
°C
Wind Press
QNH
hPa
Press
MSL
hPa
Rain
since 9 am
mm
Dir
 
Spd
km/h
Gust
km/h
Spd
kts
Gust
kts
25/11:30pm 23.9 17.6 4.0 27 9.8 ESE 26 35 14 19 1013.9 1013.7 0.0
25/11:00pm 24.1 18.9 3.7 26 10.0 ESE 20 26 11 14 1013.9 1013.7 0.0
25/10:30pm 23.6 19.5 4.4 28 9.5 SE 15 20 8 11 1013.8 1013.6 0.0
25/10:00pm 24.0 19.8 3.8 27 9.9 SE 15 20 8 11 1013.8 1013.6 0.0
25/09:30pm 22.8 19.6 4.9 31 8.9 SE 11 15 6 8 1013.7 1013.5 0.0
25/09:00pm 23.6 20.7 4.4 28 9.5 SE 9 13 5 7 1013.5 1013.3 0.0
25/08:30pm 24.9 21.5 4.2 26 10.3 SE 11 13 6 7 1013.2 1013.0 0.0
25/08:00pm 26.3 22.4 3.5 23 11.3 SE 13 15 7 8 1012.9 1012.7 0.0
25/07:30pm 28.7 23.7 1.6 17 13.2 ESE 17 20 9 11 1012.6 1012.4 0.0
25/07:00pm 30.2 25.2 1.5 16 14.1 ESE 17 22 9 12 1012.5 1012.3 0.0
25/06:30pm 31.4 25.7 0.3 13 15.1 ESE 20 26 11 14 1012.2 1012.0 0.0
25/06:00pm 32.1 26.4 0.3 13 15.5 ESE 20 30 11 16 1011.9 1011.7 0.0
25/05:30pm 32.5 25.8 -0.9 11 16.0 SE 24 32 13 17 1012.0 1011.8 0.0
25/05:00pm 32.8 27.0 0.0 12 16.0 ESE 20 32 11 17 1012.1 1011.9 0.0
25/04:30pm 32.8 26.8 0.8 13 15.8 SE 22 28 12 15 1012.4 1012.2 0.0
25/04:00pm 32.6 27.8 2.4 14 15.3 SE 17 32 9 17 1012.8 1012.6 0.0
25/03:30pm 32.4 27.7 3.1 15 15.0 SE 17 26 9 14 1013.2 1013.0 0.0
25/03:00pm 31.8 26.7 4.0 17 14.4 E 20 37 11 20 1013.5 1013.3 0.0
25/02:30pm 31.2 26.4 2.6 16 14.4 ESE 17 32 9 17 1013.9 1013.7 0.0
25/02:00pm 30.3 24.9 4.3 19 13.4 SE 22 35 12 19 1014.3 1014.2 0.0
25/01:30pm 30.2 24.8 4.4 19 13.3 E 22 32 12 17 1014.6 1014.5 0.0
25/01:00pm 29.0 24.5 6.3 23 12.0 E 19 26 10 14 1015.0 1014.9 0.0
25/12:30pm 29.1 24.8 7.1 25 11.8 ESE 19 33 10 18 1015.3 1015.2 0.0
25/12:00pm 28.0 23.6 7.5 27 11.0 E 20 30 11 16 1015.7 1015.6 0.0
25/11:30am 26.5 21.6 8.4 31 9.8 E 24 32 13 17 1015.9 1015.8 0.0
25/11:00am 26.3 22.0 9.4 34 9.3 E 22 32 12 17 1016.4 1016.3 0.0
25/10:30am 25.3 20.6 9.4 36 8.7 E 24 35 13 19 1016.7 1016.6 0.0
25/10:00am 24.2 19.6 9.7 39 7.9 E 24 32 13 17 1017.0 1016.9 0.0
25/09:30am 23.3 19.2 10.2 43 7.2 E 22 32 12 17 1017.3 1017.2 0.0
25/09:00am 22.5 17.6 10.0 45 6.8 E 26 39 14 21 1017.1 1017.0 0.0
25/08:30am 21.3 16.8 10.0 48 6.1 E 24 35 13 19 1017.3 1017.2 0.0
25/08:00am 20.4 16.7 10.2 52 5.5 ESE 20 35 11 19 1017.3 1017.2 0.0
25/07:30am 19.3 14.9 10.4 56 4.8 E 24 35 13 19 1017.3 1017.2 0.0
25/07:00am 18.4 14.4 10.6 60 4.2 E 22 35 12 19 1017.2 1017.1 0.0
25/06:30am 17.5 13.0 10.1 62 3.9 E 24 37 13 20 1017.0 1016.9 0.0
25/06:00am 17.0 13.3 10.2 64 3.6 E 20 32 11 17 1016.7 1016.6 0.0
25/05:30am 16.7 13.2 10.1 65 3.5 ESE 19 28 10 15 1016.4 1016.3 0.0
25/05:00am 17.2 13.5 10.0 62 3.8 ESE 20 39 11 21 1015.9 1015.8 0.0
25/04:30am 17.2 13.6 10.4 64 3.6 ESE 20 33 11 18 1015.5 1015.4 0.0
25/04:00am 17.7 14.1 10.4 62 3.9 ESE 20 33 11 18 1015.3 1015.2 0.0
25/03:30am 18.2 13.8 10.3 60 4.2 ESE 24 35 13 19 1015.0 1014.9 0.0
25/03:00am 18.5 14.5 10.3 59 4.4 ESE 22 30 12 16 1015.0 1014.9 0.0
25/02:30am 19.2 15.5 10.0 55 4.9 ESE 20 32 11 17 1014.7 1014.6 0.0
25/02:00am 19.9 16.1 9.8 52 5.4 ESE 20 37 11 20 1014.7 1014.6 0.0
25/01:30am 20.4 16.6 9.1 48 6.0 ESE 19 30 10 16 1014.7 1014.6 0.0
25/01:00am 16.8 16.0 11.7 72 2.8 SE 7 13 4 7 1014.7 1014.6 0.0
25/12:30am 17.7 16.7 12.3 70 3.0 S 9 11 5 6 1014.6 1014.5 0.0
25/12:00am 18.8 17.5 12.5 67 3.5 S 11 15 6 8 1014.6 1014.5 0.0
 
Date/Time
WST
Temp
°C
App
Temp
°C
Dew
Point
Rel
Hum
%
Delta-T
°C
Wind Press
QNH
hPa
Press
MSL
hPa
Rain
since 9 am
mm
Dir
 
Spd
km/h
Gust
km/h
Spd
kts
Gust
kts
24/11:30pm 19.5 17.9 12.8 65 3.8 S 13 17 7 9 1014.5 1014.4 0.0
24/11:00pm 20.1 18.7 13.3 65 3.9 S 13 19 7 10 1014.6 1014.5 0.0
24/10:30pm 20.6 19.3 13.6 64 4.0 S 13 17 7 9 1014.7 1014.6 0.0
24/10:00pm 20.9 18.9 14.0 64 4.0 S 17 22 9 12 1014.8 1014.7 0.0
24/09:30pm 21.4 19.4 14.0 62 4.3 S 17 22 9 12 1014.7 1014.6 0.0
24/09:00pm 21.8 19.7 13.7 60 4.7 S 17 24 9 13 1014.8 1014.7 0.0
24/08:30pm 21.9 19.7 13.2 57 5.0 SSW 17 20 9 11 1014.7 1014.6 0.0
24/08:00pm 22.2 20.6 13.8 59 4.9 SSW 15 20 8 11 1014.4 1014.3 0.0
24/07:30pm 22.4 20.6 14.4 60 4.7 SSW 17 28 9 15 1014.4 1014.3 0.0
24/07:00pm 22.9 20.1 14.4 58 5.0 SSW 22 32 12 17 1014.2 1014.0 0.0
24/06:30pm 23.2 20.3 15.2 60 4.8 SW 24 33 13 18 1014.1 1013.9 0.0
24/06:00pm 25.0 21.9 14.4 51 6.3 SSW 24 33 13 18 1013.8 1013.6 0.0
24/05:30pm 24.6 21.1 14.5 53 6.0 SW 26 33 14 18 1013.7 1013.5 0.0
24/05:00pm 26.1 22.0 13.7 46 7.3 SSW 28 41 15 22 1013.6 1013.4 0.0
24/04:30pm 27.0 22.5 13.9 44 7.8 SW 30 46 16 25 1013.6 1013.4 0.0
24/04:00pm 27.0 22.0 13.4 43 8.0 SW 32 41 17 22 1013.8 1013.6 0.0
24/03:30pm 28.0 22.8 12.8 39 8.9 SW 32 39 17 21 1013.9 1013.7 0.0
24/03:00pm 28.3 23.5 13.0 39 9.0 SW 30 37 16 20 1014.0 1013.8 0.0
24/02:30pm 28.4 24.5 13.2 39 9.0 WSW 26 39 14 21 1014.1 1013.9 0.0
24/02:00pm 27.5 23.1 13.0 40 8.5 WSW 28 37 15 20 1014.3 1014.2 0.0
24/01:30pm 28.1 23.7 11.8 36 9.4 SW 26 33 14 18 1014.5 1014.4 0.0
24/01:00pm 29.0 24.1 2.2 18 13.2 SSE 17 28 9 15 1015.0 1014.9 0.0
24/12:30pm 29.4 25.3 4.2 20 12.9 S 15 24 8 13 1015.3 1015.2 0.0
24/12:00pm 27.7 23.8 5.2 23 11.6 SSW 15 20 8 11 1015.7 1015.6 0.0
24/11:30am 26.7 24.6 8.1 30 10.0 SSE 9 20 5 11 1016.0 1015.9 0.0
24/11:00am 25.6 22.2 7.5 31 9.6 ESE 15 20 8 11 1016.4 1016.3 0.0
24/10:30am 24.4 21.0 7.5 34 8.9 SE 15 24 8 13 1016.7 1016.6 0.0
24/10:00am 22.8 19.8 7.9 38 7.8 SSE 13 22 7 12 1016.8 1016.7 0.0
24/09:30am 21.8 18.6 8.3 42 7.1 SE 15 24 8 13 1017.0 1016.9 0.0
24/09:00am 21.1 17.4 8.0 43 6.8 SE 17 24 9 13 1017.1 1017.0 0.0
24/08:30am 20.3 17.0 8.2 45 6.3 SE 15 20 8 11 1017.2 1017.1 0.0
24/08:00am 19.7 16.2 8.8 49 5.7 SE 17 24 9 13 1017.3 1017.2 0.0
24/07:30am 18.3 15.0 9.6 57 4.6 SSE 17 22 9 12 1017.2 1017.1 0.0
24/07:00am 17.0 14.2 10.0 63 3.7 SSE 15 24 8 13 1016.8 1016.7 0.0
24/06:30am 15.9 13.1 10.0 68 3.1 SSE 15 19 8 10 1016.6 1016.5 0.0
24/06:00am 14.9 11.6 9.7 71 2.7 SSE 17 24 9 13 1016.2 1016.1 0.0
24/05:30am 14.1 12.0 9.8 75 2.2 S 11 15 6 8 1016.0 1015.9 0.0
24/05:00am 14.0 11.9 9.9 76 2.1 S 11 13 6 7 1015.5 1015.4 0.0
24/04:30am 14.6 11.9 10.2 75 2.3 S 15 19 8 10 1015.0 1014.9 0.0
24/04:00am 15.0 11.6 10.4 74 2.4 S 19 22 10 12 1014.8 1014.7 0.0
24/03:30am 15.1 12.6 11.0 76 2.2 SSW 15 19 8 10 1014.8 1014.7 0.0
24/03:00am 15.2 13.5 11.3 77 2.1 SSW 11 13 6 7 1014.6 1014.5 0.0
24/02:30am 15.8 13.4 11.3 74 2.4 SSW 15 19 8 10 1014.4 1014.3 0.0
24/02:00am 16.0 14.4 11.6 75 2.4 SSW 11 13 6 7 1014.2 1014.0 0.0
24/01:30am 16.5 14.9 11.7 73 2.6 S 11 15 6 8 1014.1 1013.9 0.0
24/01:00am 17.4 15.0 11.5 68 3.2 S 15 20 8 11 1014.0 1013.8 0.0
24/12:30am 18.1 15.0 11.5 65 3.6 S 19 26 10 14 1014.0 1013.8 0.0
24/12:00am 18.8 15.7 11.7 63 3.9 S 19 26 10 14 1014.1 1013.9 0.0
 
Date/Time
WST
Temp
°C
App
Temp
°C
Dew
Point
Rel
Hum
%
Delta-T
°C
Wind Press
QNH
hPa
Press
MSL
hPa
Rain
since 9 am
mm
Dir
 
Spd
km/h
Gust
km/h
Spd
kts
Gust
kts
23/11:30pm 19.3 16.8 12.3 64 3.9 S 17 22 9 12 1014.0 1013.8 0.0
23/11:00pm 19.5 17.8 13.7 69 3.3 S 15 20 8 11 1014.0 1013.8 0.0
23/10:30pm 19.5 18.6 14.9 75 2.7 S 13 19 7 10 1014.0 1013.8 0.0
23/10:00pm 19.9 19.5 15.3 75 2.7 SSW 11 15 6 8 1014.2 1014.0 0.0
23/09:30pm 20.4 19.0 15.5 73 2.9 SSW 17 22 9 12 1014.2 1014.0 0.0
23/09:00pm 20.5 19.3 16.0 75 2.7 SSW 17 22 9 12 1014.2 1014.0 0.0
23/08:30pm 20.5 19.4 16.4 77 2.5 SW 17 22 9 12 1014.2 1014.0 0.0
23/08:00pm 20.7 19.2 16.2 75 2.7 SW 19 28 10 15 1014.1 1013.9 0.0
23/07:30pm 21.4 19.7 15.7 70 3.4 SW 19 28 10 15 1014.2 1014.0 0.0
23/07:00pm 22.4 19.3 14.4 60 4.7 SSW 24 32 13 17 1014.0 1013.8 0.0
23/06:30pm 23.5 20.8 14.5 57 5.3 SSW 22 28 12 15 1013.9 1013.7 0.0
23/06:00pm 23.9 21.0 15.0 57 5.3 SW 24 32 13 17 1013.6 1013.4 0.0
23/05:30pm 25.2 22.2 14.7 52 6.3 SW 24 33 13 18 1013.5 1013.3 0.0
23/05:00pm 25.8 22.4 13.8 47 7.1 SW 24 35 13 19 1013.3 1013.1 0.0
23/04:30pm 26.9 23.4 13.3 43 8.0 SW 24 32 13 17 1013.4 1013.2 0.0
23/04:00pm 27.1 22.9 12.5 40 8.5 SSW 26 35 14 19 1013.5 1013.3 0.0
23/03:30pm 27.8 23.5 12.1 37 9.1 SSW 26 33 14 18 1013.5 1013.3 0.0
23/03:00pm 28.1 24.3 12.5 38 9.1 SW 24 37 13 20 1013.6 1013.4 0.0
23/02:30pm 28.3 23.9 12.8 38 9.1 SW 28 35 15 19 1013.7 1013.5 0.0

Other Formats:

Comma delimited format used in spreadsheet applications
http://www.bom.gov.au/fwo/IDW60801/IDW60801.94609.axf

JavaScript Object Notation format (JSON) in row-major order
http://www.bom.gov.au/fwo/IDW60801/IDW60801.94609.json